Palermo — V2IA7 — position and weather

sailwx.info

Track history (hours):
 
Tides and Currents Weather Stations Pressure Air Temp Water Temp Dewpoint Dewpoint Depression Visibility Wind Speed Wind Dir Waves Ship Positions

Palermo

Last reported at 2016-Nov-26 09:22 UTC. Time now 2016-Dec-10 16:46 UTC.
Position N 35°57' W 005°34'.
Warning: this ship's position is 14 days out of date.

Length 118 m; draft 5.5 m.

Type: Cargo ship. MMSI: 304255000.

Date/timePositionNaut miles runAvg speedWind from/ knotsBaromVisibWave heightAir tempDewpointWater temp
2016-Nov-26 09:22N 35°57' W 005°34'911.1
2016-Nov-26 08:33N 35°60' W 005°24'23513.8
2016-Nov-25 15:31N 37°23' W 000°49'2713.7
2016-Nov-25 13:33N 37°43' W 000°26'  
2016-Nov-23 03:33N 40°56' E 001°42'1313.1
2016-Nov-23 02:33N 40°51' E 001°58'2914.3
2016-Nov-23 00:33N 40°41' E 002°33'1313.0
2016-Nov-22 23:33N 40°36' E 002°49'1414.0
2016-Nov-22 22:33N 40°31' E 003°06'2813.8
2016-Nov-22 20:31N 40°21' E 003°40'25514.2
2016-Nov-22 02:32N 38°46' E 008°47'18914.6
2016-Nov-21 13:32N 38°29' E 012°49'1414.6
2016-Nov-21 12:33N 38°27' E 013°07'1414.3
2016-Nov-21 11:33N 38°26' E 013°25'1414.2
2016-Nov-21 10:33N 38°24' E 013°43'7214.4
2016-Nov-21 05:33N 38°20' E 015°15'1414.3
2016-Nov-21 04:34N 38°21' E 015°33'2211.0
2016-Nov-21 02:33N 37°59' E 015°35'40912.3
2016-Nov-19 17:23N 37°41' E 024°13'1214.1
2016-Nov-19 16:33N 37°49' E 024°24'  
Track history (hours):
 
Tides and Currents Weather Stations Pressure Air Temp Water Temp Dewpoint Dewpoint Depression Visibility Wind Speed Wind Dir Waves Ship Positions

Palermo

Last reported at 2016-Nov-26 09:22 UTC. Time now 2016-Dec-10 16:46 UTC.
Position N 35°57' W 005°34'.
Warning: this ship's position is 14 days out of date.

Length 118 m; draft 5.5 m.

Type: Cargo ship. MMSI: 304255000.

Date/timePositionNaut miles runAvg speedWind from/ knotsBaromVisibWave heightAir tempDewpointWater temp
2016-Nov-26 09:22N 35°57' W 005°34'911.1
2016-Nov-26 08:33N 35°60' W 005°24'23513.8
2016-Nov-25 15:31N 37°23' W 000°49'2713.7
2016-Nov-25 13:33N 37°43' W 000°26'  
2016-Nov-23 03:33N 40°56' E 001°42'1313.1
2016-Nov-23 02:33N 40°51' E 001°58'2914.3
2016-Nov-23 00:33N 40°41' E 002°33'1313.0
2016-Nov-22 23:33N 40°36' E 002°49'1414.0
2016-Nov-22 22:33N 40°31' E 003°06'2813.8
2016-Nov-22 20:31N 40°21' E 003°40'25514.2
2016-Nov-22 02:32N 38°46' E 008°47'18914.6
2016-Nov-21 13:32N 38°29' E 012°49'1414.6
2016-Nov-21 12:33N 38°27' E 013°07'1414.3
2016-Nov-21 11:33N 38°26' E 013°25'1414.2
2016-Nov-21 10:33N 38°24' E 013°43'7214.4
2016-Nov-21 05:33N 38°20' E 015°15'1414.3
2016-Nov-21 04:34N 38°21' E 015°33'2211.0
2016-Nov-21 02:33N 37°59' E 015°35'40912.3
2016-Nov-19 17:23N 37°41' E 024°13'1214.1
2016-Nov-19 16:33N 37°49' E 024°24'  

Dump ship's entire track history